Time;durP1;ratioP1;P1;durP2;ratioP2;P2;SDS_P1;SDS_P2;PMS_P1;PMS_P2;Temp;Humidity;BMP_temperature;BMP_pressure;BME280_temperature;BME280_humidity;BME280_pressure;Samples;Min_cycle;Max_cycle;Signal;HPM_P1;HPM_P2
2023/06/23 00:00:44;;;;;;;13.65;5.97;;;;;;;;;;5032474;28;21426;-74
2023/06/23 00:03:10;;;;;;;9.70;5.90;;;;;;;;;;5041867;28;20025;-74
2023/06/23 00:05:37;;;;;;;11.60;6.32;;;;;;;;;;5035800;28;20036;-73
2023/06/23 00:08:05;;;;;;;13.40;6.60;;;;;;;;;;5033355;28;20096;-74
2023/06/23 00:10:31;;;;;;;12.13;6.28;;;;;;;;;;5033750;28;20447;-73
2023/06/23 00:12:57;;;;;;;18.08;6.82;;;;;;;;;;5033036;28;20472;-75
2023/06/23 00:15:23;;;;;;;11.55;6.60;;;;;;;;;;5033496;28;20022;-75
2023/06/23 00:17:50;;;;;;;10.05;6.22;;;;;;;;;;5034537;28;20451;-75
2023/06/23 00:20:16;;;;;;;15.23;6.80;;;;;;;;;;5034646;28;20026;-74
2023/06/23 00:22:44;;;;;;;11.95;7.35;;;;;;;;;;5034602;28;20022;-74
2023/06/23 00:25:10;;;;;;;10.13;7.53;;;;;;;;;;5034607;28;20025;-74
2023/06/23 00:27:37;;;;;;;12.10;7.53;;;;;;;;;;5034553;28;20040;-75
2023/06/23 00:30:03;;;;;;;15.50;7.30;;;;;;;;;;5034402;28;20494;-74
2023/06/23 00:32:29;;;;;;;10.43;7.22;;;;;;;;;;5034299;28;20022;-75
2023/06/23 00:34:55;;;;;;;11.13;6.60;;;;;;;;;;5034410;28;20025;-75
2023/06/23 00:37:21;;;;;;;13.23;7.07;;;;;;;;;;5034416;28;20028;-74
2023/06/23 00:39:48;;;;;;;12.15;6.80;;;;;;;;;;5034233;28;20211;-74
2023/06/23 00:42:14;;;;;;;13.82;7.22;;;;;;;;;;5033922;28;20029;-75
2023/06/23 00:44:40;;;;;;;14.38;6.85;;;;;;;;;;5034346;28;20037;-75
2023/06/23 00:47:08;;;;;;;11.60;6.35;;;;;;;;;;5034281;28;20033;-75
2023/06/23 00:49:35;;;;;;;10.25;6.97;;;;;;;;;;5034135;28;20030;-75
2023/06/23 00:52:03;;;;;;;14.10;7.20;;;;;;;;;;5033990;28;20068;-74
2023/06/23 00:54:32;;;;;;;12.93;6.97;;;;;;;;;;5034105;28;20045;-74
2023/06/23 00:56:58;;;;;;;13.20;7.55;;;;;;;;;;5034059;28;20079;-75
2023/06/23 00:59:30;;;;;;;9.05;6.32;;;;;;;;;;5034068;28;20093;-74
2023/06/23 01:02:01;;;;;;;9.73;7.20;;;;;;;;;;5033076;28;20033;-75
2023/06/23 01:04:34;;;;;;;13.32;6.88;;;;;;;;;;5034050;28;20033;-74
2023/06/23 01:07:00;;;;;;;9.80;6.45;;;;;;;;;;5033876;28;20017;-74
2023/06/23 01:09:42;;;;;;;10.27;7.03;;;;;;;;;;5033729;28;20464;-74
2023/06/23 01:12:12;;;;;;;15.20;6.70;;;;;;;;;;5033705;28;20064;-74
2023/06/23 01:14:43;;;;;;;10.13;7.03;;;;;;;;;;5033676;28;20484;-75
2023/06/23 01:17:30;;;;;;;11.68;7.05;;;;;;;;;;5034209;28;20071;-78
2023/06/23 01:20:11;;;;;;;10.95;6.63;;;;;;;;;;5029559;28;20083;-75
2023/06/23 01:22:44;;;;;;;10.93;6.65;;;;;;;;;;5034152;28;20033;-75
2023/06/23 01:25:17;;;;;;;8.63;6.32;;;;;;;;;;5034608;28;20040;-75
2023/06/23 01:28:01;;;;;;;12.45;6.85;;;;;;;;;;5034492;28;20036;-75
2023/06/23 01:30:30;;;;;;;10.85;6.75;;;;;;;;;;5034441;28;20036;-76
2023/06/23 01:32:59;;;;;;;12.73;6.72;;;;;;;;;;5034051;28;20026;-74
2023/06/23 01:35:28;;;;;;;8.38;6.22;;;;;;;;;;5032837;28;20049;-74
2023/06/23 01:37:57;;;;;;;14.57;6.28;;;;;;;;;;5033037;28;20022;-75
2023/06/23 01:40:24;;;;;;;10.30;6.55;;;;;;;;;;5034079;28;20022;-73
2023/06/23 01:42:56;;;;;;;11.30;6.80;;;;;;;;;;5032682;28;20033;-75
2023/06/23 01:45:24;;;;;;;9.65;6.22;;;;;;;;;;5033260;28;20029;-74
2023/06/23 01:47:50;;;;;;;10.23;6.55;;;;;;;;;;5033122;28;20055;-74
2023/06/23 01:50:18;;;;;;;11.95;7.15;;;;;;;;;;5033072;28;20030;-72
2023/06/23 01:52:45;;;;;;;10.27;6.35;;;;;;;;;;5027637;28;20055;-74
2023/06/23 01:55:12;;;;;;;11.80;6.93;;;;;;;;;;5032150;28;20028;-74
2023/06/23 01:57:39;;;;;;;13.88;6.60;;;;;;;;;;5031812;28;20018;-74
2023/06/23 02:00:11;;;;;;;13.55;6.60;;;;;;;;;;5031771;28;20028;-74
2023/06/23 02:02:37;;;;;;;13.25;6.82;;;;;;;;;;5032131;28;20057;-74
2023/06/23 02:05:04;;;;;;;12.10;7.28;;;;;;;;;;5031289;28;20071;-75
2023/06/23 02:07:30;;;;;;;14.60;7.22;;;;;;;;;;5031548;28;20487;-74
2023/06/23 02:09:57;;;;;;;9.45;6.45;;;;;;;;;;5031488;28;20444;-75
2023/06/23 02:12:23;;;;;;;11.85;6.63;;;;;;;;;;5030189;28;20057;-73
2023/06/23 02:14:49;;;;;;;13.73;7.28;;;;;;;;;;5031447;28;20025;-73
2023/06/23 02:17:15;;;;;;;14.38;7.05;;;;;;;;;;5031538;28;20026;-73
2023/06/23 02:19:47;;;;;;;11.15;6.10;;;;;;;;;;5031730;28;20057;-74
2023/06/23 02:22:21;;;;;;;9.88;6.50;;;;;;;;;;5030966;28;20029;-73
2023/06/23 02:24:47;;;;;;;8.05;5.82;;;;;;;;;;5031459;28;20026;-73
2023/06/23 02:27:13;;;;;;;10.48;5.55;;;;;;;;;;5031350;28;20147;-74
2023/06/23 02:29:41;;;;;;;7.95;5.55;;;;;;;;;;5031543;28;20057;-74
2023/06/23 02:32:08;;;;;;;12.50;6.00;;;;;;;;;;5030611;28;20038;-74
2023/06/23 02:34:37;;;;;;;8.93;5.95;;;;;;;;;;5032383;28;20475;-72
2023/06/23 02:37:05;;;;;;;10.48;5.70;;;;;;;;;;5032125;28;20068;-71
2023/06/23 02:39:34;;;;;;;10.82;5.97;;;;;;;;;;5032209;28;20035;-71
2023/06/23 02:42:00;;;;;;;10.52;5.72;;;;;;;;;;5031676;28;20025;-74
2023/06/23 02:44:38;;;;;;;9.48;4.97;;;;;;;;;;5032017;28;20037;-73
2023/06/23 02:47:06;;;;;;;10.80;6.22;;;;;;;;;;5032031;28;20064;-73
2023/06/23 02:49:32;;;;;;;7.65;5.30;;;;;;;;;;5031889;28;20037;-73
2023/06/23 02:52:02;;;;;;;7.65;5.65;;;;;;;;;;5031540;28;20091;-72
2023/06/23 02:54:32;;;;;;;7.28;5.55;;;;;;;;;;5031941;28;20088;-71
2023/06/23 02:56:59;;;;;;;9.30;5.70;;;;;;;;;;5031948;28;20079;-71
2023/06/23 02:59:26;;;;;;;7.88;5.22;;;;;;;;;;5030023;28;20032;-71
2023/06/23 03:01:53;;;;;;;11.82;5.75;;;;;;;;;;5030021;28;20476;-71
2023/06/23 03:04:21;;;;;;;9.30;5.60;;;;;;;;;;5030239;28;20475;-72
2023/06/23 03:06:47;;;;;;;10.25;5.60;;;;;;;;;;5030427;28;20111;-72
2023/06/23 03:09:13;;;;;;;9.32;5.40;;;;;;;;;;5030195;28;20183;-72
2023/06/23 03:11:39;;;;;;;10.35;5.95;;;;;;;;;;5029784;28;20487;-71
2023/06/23 03:14:05;;;;;;;8.07;5.45;;;;;;;;;;5029699;28;20095;-71
2023/06/23 03:16:48;;;;;;;8.40;5.53;;;;;;;;;;5030583;28;20502;-70
2023/06/23 03:19:37;;;;;;;8.60;5.82;;;;;;;;;;5030552;28;20026;-71
2023/06/23 03:22:03;;;;;;;7.55;5.40;;;;;;;;;;5030089;28;20104;-72
2023/06/23 03:24:31;;;;;;;9.40;6.45;;;;;;;;;;5032806;28;20140;-71
2023/06/23 03:26:57;;;;;;;11.57;6.35;;;;;;;;;;5037214;28;20025;-72
2023/06/23 03:29:25;;;;;;;10.20;6.35;;;;;;;;;;5036489;28;20151;-71
2023/06/23 03:31:52;;;;;;;11.73;6.25;;;;;;;;;;5036153;28;20026;-71
2023/06/23 03:34:19;;;;;;;10.95;6.00;;;;;;;;;;5037271;28;20029;-72
2023/06/23 03:36:45;;;;;;;12.02;6.97;;;;;;;;;;5037098;28;20369;-73
2023/06/23 03:39:18;;;;;;;8.65;6.00;;;;;;;;;;5036974;28;20101;-71
2023/06/23 03:41:44;;;;;;;10.15;6.40;;;;;;;;;;5036243;28;20548;-71
2023/06/23 03:44:29;;;;;;;11.50;5.80;;;;;;;;;;5036695;28;20469;-71
2023/06/23 03:46:59;;;;;;;10.05;6.15;;;;;;;;;;5036780;28;20076;-72
2023/06/23 03:49:31;;;;;;;10.07;5.93;;;;;;;;;;5036647;28;20284;-71
2023/06/23 03:51:58;;;;;;;13.48;5.88;;;;;;;;;;5035411;28;20036;-76
2023/06/23 03:54:25;;;;;;;9.10;5.90;;;;;;;;;;5037481;28;20032;-71
2023/06/23 03:56:52;;;;;;;10.07;5.78;;;;;;;;;;5036859;28;20021;-71
2023/06/23 03:59:18;;;;;;;11.88;6.22;;;;;;;;;;5036807;28;20479;-72
2023/06/23 04:01:45;;;;;;;8.70;5.55;;;;;;;;;;5036157;28;20136;-72
2023/06/23 04:04:11;;;;;;;9.32;5.63;;;;;;;;;;5036199;28;20022;-71
2023/06/23 04:06:38;;;;;;;10.48;6.20;;;;;;;;;;5036616;28;20018;-71
2023/06/23 04:09:05;;;;;;;14.10;6.22;;;;;;;;;;5036422;28;20045;-72
2023/06/23 04:11:31;;;;;;;8.93;6.05;;;;;;;;;;5036644;28;20026;-74
2023/06/23 04:13:58;;;;;;;11.82;6.25;;;;;;;;;;5036258;28;20360;-73
2023/06/23 04:16:25;;;;;;;10.25;5.50;;;;;;;;;;5036402;28;20017;-75
2023/06/23 04:18:51;;;;;;;7.82;5.60;;;;;;;;;;5036678;28;20108;-75
2023/06/23 04:21:18;;;;;;;9.35;5.47;;;;;;;;;;5036445;28;20025;-75
2023/06/23 04:23:45;;;;;;;7.50;5.63;;;;;;;;;;5036187;28;20437;-75
2023/06/23 04:26:12;;;;;;;8.15;5.68;;;;;;;;;;5036958;28;20049;-74
2023/06/23 04:28:40;;;;;;;15.45;5.93;;;;;;;;;;5036924;28;20026;-75
2023/06/23 04:31:08;;;;;;;9.15;6.60;;;;;;;;;;5035771;28;20033;-73
2023/06/23 04:33:34;;;;;;;10.32;6.95;;;;;;;;;;5037525;28;20112;-75
2023/06/23 04:36:17;;;;;;;8.40;6.30;;;;;;;;;;5041430;28;20534;-75
2023/06/23 04:38:48;;;;;;;8.75;5.82;;;;;;;;;;5045525;28;20033;-74
2023/06/23 04:41:16;;;;;;;7.57;5.40;;;;;;;;;;5046510;28;20070;-78
2023/06/23 04:43:44;;;;;;;11.63;5.93;;;;;;;;;;5043655;28;20357;-76
2023/06/23 04:46:20;;;;;;;11.25;6.45;;;;;;;;;;5035198;28;20035;-77
2023/06/23 04:48:48;;;;;;;8.60;5.75;;;;;;;;;;5038379;28;20025;-76
2023/06/23 04:51:16;;;;;;;13.38;6.10;;;;;;;;;;5045860;28;20041;-77
2023/06/23 04:53:47;;;;;;;9.38;6.20;;;;;;;;;;5035848;28;20049;-77
2023/06/23 04:56:16;;;;;;;12.07;6.28;;;;;;;;;;5036256;28;20034;-77
2023/06/23 04:58:44;;;;;;;12.20;6.80;;;;;;;;;;5033889;28;20021;-76
2023/06/23 05:01:11;;;;;;;9.88;5.65;;;;;;;;;;5032991;28;20048;-76
2023/06/23 05:03:38;;;;;;;9.30;5.70;;;;;;;;;;5032029;28;20033;-74
2023/06/23 05:06:05;;;;;;;17.20;8.63;;;;;;;;;;5032816;28;20107;-73
2023/06/23 05:08:31;;;;;;;14.00;7.45;;;;;;;;;;5032475;28;20026;-75
2023/06/23 05:11:04;;;;;;;13.70;6.65;;;;;;;;;;5032454;28;20057;-74
2023/06/23 05:13:30;;;;;;;11.20;6.75;;;;;;;;;;5032875;28;20501;-73
2023/06/23 05:15:57;;;;;;;12.05;6.22;;;;;;;;;;5033489;28;20029;-74
2023/06/23 05:18:23;;;;;;;10.98;5.45;;;;;;;;;;5033934;28;20375;-72
2023/06/23 05:20:50;;;;;;;10.52;5.85;;;;;;;;;;5033431;28;20083;-74
2023/06/23 05:23:18;;;;;;;9.07;5.45;;;;;;;;;;5033311;28;20029;-74
2023/06/23 05:25:46;;;;;;;9.73;5.35;;;;;;;;;;5032108;28;20052;-73
2023/06/23 05:28:12;;;;;;;9.40;6.18;;;;;;;;;;5033692;28;20125;-74
2023/06/23 05:30:39;;;;;;;8.80;6.00;;;;;;;;;;5033330;28;20483;-74
2023/06/23 05:33:09;;;;;;;12.35;6.45;;;;;;;;;;5033167;28;20021;-74
2023/06/23 05:35:36;;;;;;;12.10;6.28;;;;;;;;;;5033875;28;20027;-75
2023/06/23 05:38:03;;;;;;;12.25;6.13;;;;;;;;;;5038848;28;20033;-74
2023/06/23 05:40:29;;;;;;;11.93;6.00;;;;;;;;;;5034230;28;20025;-74
2023/06/23 05:42:55;;;;;;;11.27;6.22;;;;;;;;;;5032524;28;20450;-74
2023/06/23 05:45:21;;;;;;;9.23;6.40;;;;;;;;;;5033675;28;20061;-73
2023/06/23 05:47:56;;;;;;;13.45;6.63;;;;;;;;;;5040437;28;20028;-75
2023/06/23 05:50:32;;;;;;;13.38;8.57;;;;;;;;;;5039023;28;20025;-74
2023/06/23 05:53:03;;;;;;;44.63;22.80;;;;;;;;;;5026936;28;20057;-74
2023/06/23 05:55:30;;;;;;;12.98;7.03;;;;;;;;;;5032758;28;20033;-75
2023/06/23 05:58:00;;;;;;;13.23;6.80;;;;;;;;;;5036728;28;20049;-75
2023/06/23 06:00:30;;;;;;;13.95;6.85;;;;;;;;;;5038925;28;20441;-74
2023/06/23 06:02:57;;;;;;;9.10;6.20;;;;;;;;;;5037927;28;20069;-73
2023/06/23 06:05:23;;;;;;;10.68;6.20;;;;;;;;;;5033675;28;20059;-74
2023/06/23 06:07:50;;;;;;;10.55;6.60;;;;;;;;;;5032214;28;20026;-74
2023/06/23 06:10:16;;;;;;;9.43;6.95;;;;;;;;;;5035938;28;20632;-74
2023/06/23 06:12:44;;;;;;;13.00;8.23;;;;;;;;;;5032819;28;20032;-75
2023/06/23 06:15:11;;;;;;;14.90;8.73;;;;;;;;;;5032094;28;20040;-74
2023/06/23 06:17:38;;;;;;;12.63;8.02;;;;;;;;;;5032955;28;20040;-74
2023/06/23 06:20:05;;;;;;;13.90;7.65;;;;;;;;;;5031811;28;20025;-78
2023/06/23 06:22:32;;;;;;;13.20;7.78;;;;;;;;;;5032193;28;20030;-75
2023/06/23 06:25:00;;;;;;;12.18;7.60;;;;;;;;;;5032588;28;20431;-77
2023/06/23 06:27:27;;;;;;;13.30;7.97;;;;;;;;;;5032812;28;20087;-76
2023/06/23 06:29:53;;;;;;;19.73;8.38;;;;;;;;;;5033020;28;20029;-74
2023/06/23 06:32:20;;;;;;;13.10;8.57;;;;;;;;;;5031740;28;20088;-74
2023/06/23 06:34:48;;;;;;;12.15;8.40;;;;;;;;;;5032044;28;20056;-73
2023/06/23 06:37:14;;;;;;;14.13;9.13;;;;;;;;;;5032061;28;20017;-74
2023/06/23 06:39:41;;;;;;;13.63;8.50;;;;;;;;;;5032198;28;20387;-74
2023/06/23 06:42:07;;;;;;;16.75;8.80;;;;;;;;;;5031486;28;20041;-73
2023/06/23 06:44:33;;;;;;;18.60;9.20;;;;;;;;;;5031988;28;20095;-74
2023/06/23 06:47:01;;;;;;;14.88;8.40;;;;;;;;;;5031933;28;20030;-74
2023/06/23 06:49:28;;;;;;;12.52;8.30;;;;;;;;;;5031830;28;20021;-73
2023/06/23 06:51:54;;;;;;;16.38;9.63;;;;;;;;;;5031336;28;20026;-73
2023/06/23 06:54:20;;;;;;;14.52;9.23;;;;;;;;;;5029973;28;20459;-73
2023/06/23 06:56:47;;;;;;;27.67;14.45;;;;;;;;;;5031042;28;20025;-75
2023/06/23 06:59:13;;;;;;;20.23;11.55;;;;;;;;;;5030227;28;20177;-73
2023/06/23 07:01:40;;;;;;;15.75;10.93;;;;;;;;;;5030523;28;20426;-75
2023/06/23 07:04:06;;;;;;;16.65;11.27;;;;;;;;;;5030471;28;20033;-74
2023/06/23 07:06:35;;;;;;;45.45;19.13;;;;;;;;;;5033423;28;20033;-75
2023/06/23 07:09:01;;;;;;;27.60;14.35;;;;;;;;;;5033859;28;20112;-75
2023/06/23 07:11:28;;;;;;;33.08;19.42;;;;;;;;;;5033729;28;20133;-74
2023/06/23 07:13:54;;;;;;;27.85;14.63;;;;;;;;;;5034007;28;20025;-75
2023/06/23 07:16:20;;;;;;;33.03;18.38;;;;;;;;;;5031394;28;20466;-75
2023/06/23 07:18:46;;;;;;;40.17;17.27;;;;;;;;;;5030614;28;20071;-75
2023/06/23 07:21:12;;;;;;;25.42;11.93;;;;;;;;;;5032342;28;20487;-74
2023/06/23 07:23:38;;;;;;;26.67;15.63;;;;;;;;;;5034495;28;20022;-75
2023/06/23 07:26:04;;;;;;;30.42;15.85;;;;;;;;;;5036828;28;20091;-74
2023/06/23 07:28:30;;;;;;;33.63;18.73;;;;;;;;;;5037694;28;20025;-74
2023/06/23 07:30:56;;;;;;;36.65;19.80;;;;;;;;;;5037605;28;20033;-74
2023/06/23 07:33:22;;;;;;;26.10;15.80;;;;;;;;;;5035372;28;20586;-78
2023/06/23 07:35:48;;;;;;;21.80;11.70;;;;;;;;;;5035424;28;20018;-73
2023/06/23 07:38:14;;;;;;;41.25;21.45;;;;;;;;;;5034679;28;20025;-73
2023/06/23 07:40:40;;;;;;;21.67;12.52;;;;;;;;;;5034367;28;20037;-74
2023/06/23 07:43:06;;;;;;;22.15;11.70;;;;;;;;;;5029715;28;20502;-73
2023/06/23 07:45:32;;;;;;;18.95;12.15;;;;;;;;;;5029746;28;20025;-74
2023/06/23 07:47:58;;;;;;;16.13;10.90;;;;;;;;;;5030231;28;20030;-72
2023/06/23 07:50:26;;;;;;;20.40;12.43;;;;;;;;;;5029915;28;20026;-74
2023/06/23 07:52:55;;;;;;;17.17;11.75;;;;;;;;;;5029362;28;20014;-72
2023/06/23 07:55:21;;;;;;;19.27;12.52;;;;;;;;;;5029984;28;20490;-73
2023/06/23 07:57:48;;;;;;;21.40;13.05;;;;;;;;;;5030910;28;20022;-73
2023/06/23 08:00:14;;;;;;;19.55;11.32;;;;;;;;;;5030931;28;20025;-74
2023/06/23 08:02:41;;;;;;;17.88;11.30;;;;;;;;;;5030895;28;20025;-73
2023/06/23 08:05:07;;;;;;;20.15;11.60;;;;;;;;;;5031127;28;20044;-73
2023/06/23 08:07:33;;;;;;;26.85;11.68;;;;;;;;;;5031116;28;20087;-73
2023/06/23 08:09:59;;;;;;;20.60;12.43;;;;;;;;;;5030651;28;20453;-72
2023/06/23 08:12:25;;;;;;;25.25;12.27;;;;;;;;;;5033677;28;20021;-72
2023/06/23 08:14:51;;;;;;;20.50;12.32;;;;;;;;;;5035000;28;20455;-74
2023/06/23 08:17:17;;;;;;;17.17;11.38;;;;;;;;;;5034800;28;20022;-74
2023/06/23 08:19:43;;;;;;;15.38;10.43;;;;;;;;;;5034967;28;20036;-74
2023/06/23 08:22:10;;;;;;;20.33;12.80;;;;;;;;;;5034566;28;20025;-74
2023/06/23 08:24:36;;;;;;;22.63;11.90;;;;;;;;;;5034781;28;20058;-74
2023/06/23 08:27:02;;;;;;;25.85;14.50;;;;;;;;;;5034692;28;20056;-73
2023/06/23 08:29:28;;;;;;;23.38;12.27;;;;;;;;;;5033884;28;20029;-73
2023/06/23 08:31:54;;;;;;;22.65;12.82;;;;;;;;;;5034241;28;20545;-74
2023/06/23 08:34:20;;;;;;;18.20;11.68;;;;;;;;;;5034545;28;20029;-71
2023/06/23 08:36:46;;;;;;;19.55;12.32;;;;;;;;;;5034576;28;20541;-73
2023/06/23 08:39:12;;;;;;;22.63;12.18;;;;;;;;;;5034599;28;20026;-76
2023/06/23 08:41:41;;;;;;;16.85;10.95;;;;;;;;;;5034339;28;20519;-74
2023/06/23 08:44:10;;;;;;;17.23;11.57;;;;;;;;;;5034060;28;20017;-73
2023/06/23 08:46:38;;;;;;;20.33;11.30;;;;;;;;;;5031272;28;20025;-73
2023/06/23 08:49:06;;;;;;;21.58;10.60;;;;;;;;;;5033404;28;20623;-73
2023/06/23 08:51:33;;;;;;;17.77;10.40;;;;;;;;;;5033295;28;20507;-73
2023/06/23 08:53:59;;;;;;;15.57;10.00;;;;;;;;;;5032886;28;20394;-73
2023/06/23 08:56:26;;;;;;;19.60;11.45;;;;;;;;;;5033104;28;20112;-73
2023/06/23 08:58:52;;;;;;;18.95;11.27;;;;;;;;;;5033177;28;20026;-73
2023/06/23 09:01:18;;;;;;;20.60;11.43;;;;;;;;;;5032752;28;20141;-72
2023/06/23 09:03:44;;;;;;;19.73;10.80;;;;;;;;;;5032399;28;20028;-73
2023/06/23 09:06:11;;;;;;;18.55;10.95;;;;;;;;;;5033232;28;20214;-74
2023/06/23 09:08:37;;;;;;;22.50;11.88;;;;;;;;;;5032729;28;20045;-74
2023/06/23 09:11:03;;;;;;;20.15;11.27;;;;;;;;;;5032618;28;20480;-74
2023/06/23 09:13:35;;;;;;;19.17;11.27;;;;;;;;;;5034045;28;20042;-74
2023/06/23 09:16:01;;;;;;;19.77;12.20;;;;;;;;;;5033598;28;20037;-72
2023/06/23 09:18:27;;;;;;;15.48;11.23;;;;;;;;;;5033267;28;20395;-74
2023/06/23 09:20:53;;;;;;;19.27;11.70;;;;;;;;;;5033526;28;20039;-72
2023/06/23 09:23:20;;;;;;;17.08;12.10;;;;;;;;;;5032115;28;20332;-73
2023/06/23 09:25:47;;;;;;;16.40;10.82;;;;;;;;;;5036662;28;20064;-74
2023/06/23 09:28:26;;;;;;;18.23;12.52;;;;;;;;;;5036695;28;20526;-73
2023/06/23 09:30:53;;;;;;;17.95;11.77;;;;;;;;;;5033573;28;20056;-75
2023/06/23 09:33:19;;;;;;;17.60;11.63;;;;;;;;;;5033983;28;20441;-74
2023/06/23 09:35:47;;;;;;;17.83;11.48;;;;;;;;;;5033753;28;20064;-75
2023/06/23 09:38:13;;;;;;;16.45;10.32;;;;;;;;;;5035654;28;20025;-73
2023/06/23 09:40:39;;;;;;;17.13;11.38;;;;;;;;;;5036081;28;20025;-72
2023/06/23 09:43:05;;;;;;;17.70;10.88;;;;;;;;;;5036751;28;20029;-74
2023/06/23 09:45:33;;;;;;;13.18;9.95;;;;;;;;;;5036585;28;20025;-73
2023/06/23 09:47:59;;;;;;;19.25;10.32;;;;;;;;;;5034701;28;20036;-74
2023/06/23 09:50:27;;;;;;;19.55;11.80;;;;;;;;;;5032776;28;20116;-75
2023/06/23 09:53:05;;;;;;;15.85;10.93;;;;;;;;;;5033064;28;20021;-73
2023/06/23 09:55:31;;;;;;;16.58;10.48;;;;;;;;;;5032966;28;20025;-73
2023/06/23 09:57:58;;;;;;;14.90;9.50;;;;;;;;;;5033520;28;20032;-74
2023/06/23 10:00:31;;;;;;;14.25;9.57;;;;;;;;;;5032667;28;20030;-73
2023/06/23 10:03:00;;;;;;;14.68;10.02;;;;;;;;;;5033616;28;20029;-76
2023/06/23 10:05:34;;;;;;;15.10;9.80;;;;;;;;;;5032695;28;20026;-74
2023/06/23 10:08:11;;;;;;;16.48;9.77;;;;;;;;;;5032664;28;20041;-74
2023/06/23 10:10:44;;;;;;;25.00;12.23;;;;;;;;;;5034137;28;20033;-75
2023/06/23 10:13:10;;;;;;;22.05;12.10;;;;;;;;;;5037624;28;20037;-75
2023/06/23 10:15:37;;;;;;;18.05;10.95;;;;;;;;;;5032982;28;20040;-74
2023/06/23 10:18:03;;;;;;;17.00;11.13;;;;;;;;;;5035134;28;20025;-74
2023/06/23 10:20:30;;;;;;;18.40;12.52;;;;;;;;;;5032261;28;20061;-75
2023/06/23 10:22:56;;;;;;;17.38;11.05;;;;;;;;;;5032494;28;20036;-73
2023/06/23 10:25:23;;;;;;;18.67;12.57;;;;;;;;;;5038663;28;20025;-76
2023/06/23 10:27:51;;;;;;;18.27;12.70;;;;;;;;;;5034208;28;20064;-74
2023/06/23 10:30:18;;;;;;;19.38;12.20;;;;;;;;;;5033727;28;20103;-74
2023/06/23 10:32:46;;;;;;;19.40;11.52;;;;;;;;;;5033428;28;20152;-74
2023/06/23 10:35:14;;;;;;;18.38;12.80;;;;;;;;;;5033683;28;20029;-73
2023/06/23 10:37:40;;;;;;;21.02;12.48;;;;;;;;;;5034291;28;20484;-75
2023/06/23 10:40:08;;;;;;;16.58;11.60;;;;;;;;;;5032151;28;20391;-73
2023/06/23 10:42:35;;;;;;;21.10;12.07;;;;;;;;;;5036402;28;20392;-72
2023/06/23 10:45:02;;;;;;;27.38;15.93;;;;;;;;;;5043603;28;20033;-73
2023/06/23 10:47:28;;;;;;;30.00;21.60;;;;;;;;;;5035920;28;20017;-74
2023/06/23 10:49:56;;;;;;;18.20;13.48;;;;;;;;;;5034866;28;20032;-73
2023/06/23 10:52:22;;;;;;;22.25;13.98;;;;;;;;;;5038237;28;20026;-73
2023/06/23 10:54:49;;;;;;;19.42;12.65;;;;;;;;;;5026343;28;20102;-73
2023/06/23 10:57:15;;;;;;;19.05;12.35;;;;;;;;;;5041992;28;20070;-73
2023/06/23 10:59:42;;;;;;;19.50;12.82;;;;;;;;;;5029834;28;20380;-74
2023/06/23 11:02:08;;;;;;;22.88;14.15;;;;;;;;;;5038682;28;20040;-74
2023/06/23 11:04:38;;;;;;;21.70;13.35;;;;;;;;;;5034790;28;20094;-72
2023/06/23 11:07:04;;;;;;;17.08;13.55;;;;;;;;;;5038339;28;20068;-72
2023/06/23 11:09:47;;;;;;;18.67;13.57;;;;;;;;;;5034550;28;20036;-74
2023/06/23 11:12:32;;;;;;;24.48;13.98;;;;;;;;;;5035173;28;20368;-74
2023/06/23 11:15:04;;;;;;;19.13;12.63;;;;;;;;;;5034938;28;20032;-73
2023/06/23 11:17:30;;;;;;;21.73;12.85;;;;;;;;;;5034854;28;20475;-74
2023/06/23 11:19:58;;;;;;;24.02;13.13;;;;;;;;;;5041120;28;20031;-73
2023/06/23 11:22:24;;;;;;;19.73;12.25;;;;;;;;;;5032830;28;20028;-74
2023/06/23 11:24:53;;;;;;;20.90;12.60;;;;;;;;;;5036487;28;20021;-72
2023/06/23 11:27:20;;;;;;;15.85;11.65;;;;;;;;;;5028598;28;20313;-74
2023/06/23 11:30:05;;;;;;;21.23;12.70;;;;;;;;;;5039190;28;20021;-74
2023/06/23 11:32:31;;;;;;;21.85;13.25;;;;;;;;;;5020195;28;20517;-74
2023/06/23 11:34:58;;;;;;;18.40;11.93;;;;;;;;;;5012504;28;20026;-73
2023/06/23 11:37:31;;;;;;;19.90;12.43;;;;;;;;;;5012099;28;20018;-74
2023/06/23 11:39:57;;;;;;;22.60;12.90;;;;;;;;;;5011941;28;20090;-72
2023/06/23 11:42:24;;;;;;;16.90;11.15;;;;;;;;;;5014694;28;20053;-73
2023/06/23 11:44:50;;;;;;;22.70;13.38;;;;;;;;;;5019213;28;20076;-73
2023/06/23 11:47:22;;;;;;;19.73;12.98;;;;;;;;;;5030289;28;20029;-75
2023/06/23 11:49:48;;;;;;;21.42;13.15;;;;;;;;;;5026594;28;20034;-77
2023/06/23 11:52:14;;;;;;;20.05;12.18;;;;;;;;;;5020455;28;20018;-73
2023/06/23 11:54:41;;;;;;;23.27;14.43;;;;;;;;;;5033726;28;20404;-73
2023/06/23 11:57:07;;;;;;;21.48;13.75;;;;;;;;;;5029843;28;20022;-73
2023/06/23 11:59:34;;;;;;;20.23;12.32;;;;;;;;;;5036564;28;22359;-73
2023/06/23 12:02:00;;;;;;;17.55;12.02;;;;;;;;;;5030097;28;20018;-76
2023/06/23 12:04:26;;;;;;;22.92;12.02;;;;;;;;;;5022850;28;20021;-72
2023/06/23 12:06:53;;;;;;;30.30;16.05;;;;;;;;;;5027844;28;20013;-72
2023/06/23 12:09:22;;;;;;;24.55;13.88;;;;;;;;;;5032452;28;20033;-74
2023/06/23 12:11:48;;;;;;;41.35;21.50;;;;;;;;;;5040147;28;20056;-73
2023/06/23 12:14:14;;;;;;;46.38;23.30;;;;;;;;;;5038313;28;20108;-73
2023/06/23 12:16:40;;;;;;;29.20;16.13;;;;;;;;;;5026721;28;20444;-74
2023/06/23 12:19:06;;;;;;;27.77;16.42;;;;;;;;;;5027302;28;20021;-73
2023/06/23 12:21:33;;;;;;;54.28;26.27;;;;;;;;;;5021353;28;20032;-75
2023/06/23 12:23:59;;;;;;;45.08;23.30;;;;;;;;;;5024157;28;20044;-74
2023/06/23 12:26:25;;;;;;;30.60;16.48;;;;;;;;;;5022404;28;20455;-73
2023/06/23 12:28:51;;;;;;;42.75;22.40;;;;;;;;;;5032009;28;20026;-72
2023/06/23 12:31:27;;;;;;;35.90;14.52;;;;;;;;;;5023041;28;20029;-73
2023/06/23 12:33:54;;;;;;;30.17;14.57;;;;;;;;;;5033498;28;20070;-73
2023/06/23 12:36:20;;;;;;;22.88;13.18;;;;;;;;;;5033864;28;20017;-73
2023/06/23 12:38:52;;;;;;;24.80;12.98;;;;;;;;;;5033492;28;20109;-72
2023/06/23 12:41:19;;;;;;;22.23;12.90;;;;;;;;;;5032973;28;20029;-73
2023/06/23 12:43:45;;;;;;;19.08;12.05;;;;;;;;;;5032919;28;20116;-73
2023/06/23 12:46:15;;;;;;;18.52;11.25;;;;;;;;;;5033195;28;20029;-72
2023/06/23 12:48:42;;;;;;;15.93;11.52;;;;;;;;;;5033278;28;20022;-74
2023/06/23 12:51:08;;;;;;;18.10;12.70;;;;;;;;;;5032321;28;20041;-74
2023/06/23 12:53:35;;;;;;;17.75;11.70;;;;;;;;;;5032426;28;20075;-73
2023/06/23 12:56:01;;;;;;;16.08;10.50;;;;;;;;;;5033488;28;20021;-74
2023/06/23 12:58:27;;;;;;;16.05;9.20;;;;;;;;;;5032234;28;20104;-73
2023/06/23 13:00:54;;;;;;;13.32;8.88;;;;;;;;;;5033171;28;20051;-72
2023/06/23 13:03:20;;;;;;;15.68;9.48;;;;;;;;;;5032438;28;20033;-73
2023/06/23 13:05:46;;;;;;;19.88;11.15;;;;;;;;;;5032508;28;20044;-73
2023/06/23 13:08:16;;;;;;;18.42;10.60;;;;;;;;;;5032580;28;20091;-73
2023/06/23 13:10:42;;;;;;;19.35;11.30;;;;;;;;;;5032736;28;20037;-75
2023/06/23 13:13:08;;;;;;;15.30;9.55;;;;;;;;;;5032189;28;20355;-73
2023/06/23 13:15:35;;;;;;;14.65;6.97;;;;;;;;;;5034121;28;20024;-73
2023/06/23 13:18:04;;;;;;;12.38;7.47;;;;;;;;;;5034878;28;20033;-73
2023/06/23 13:20:30;;;;;;;13.80;7.15;;;;;;;;;;5041057;28;20025;-73
2023/06/23 13:22:56;;;;;;;15.48;7.80;;;;;;;;;;5032801;28;20049;-73
2023/06/23 13:25:22;;;;;;;18.80;7.63;;;;;;;;;;5033414;28;20490;-73
2023/06/23 13:27:48;;;;;;;13.32;7.80;;;;;;;;;;5036893;28;20033;-72
2023/06/23 13:30:15;;;;;;;11.63;7.68;;;;;;;;;;5037826;28;20132;-73
2023/06/23 13:32:41;;;;;;;11.40;8.10;;;;;;;;;;5038980;28;20356;-73
2023/06/23 13:35:07;;;;;;;14.25;9.43;;;;;;;;;;5038390;28;20094;-74
2023/06/23 13:37:39;;;;;;;12.02;8.63;;;;;;;;;;5036418;28;20059;-73
2023/06/23 13:40:08;;;;;;;10.13;6.63;;;;;;;;;;5033765;28;20025;-73
2023/06/23 13:42:34;;;;;;;14.77;6.60;;;;;;;;;;5035235;28;20068;-73
2023/06/23 13:45:00;;;;;;;12.25;6.97;;;;;;;;;;5035955;28;20036;-73
2023/06/23 13:47:26;;;;;;;10.93;6.72;;;;;;;;;;5032915;28;20033;-72
2023/06/23 13:49:52;;;;;;;12.38;6.13;;;;;;;;;;5026250;28;20064;-73
2023/06/23 13:52:18;;;;;;;10.30;5.97;;;;;;;;;;5032051;28;20080;-72
2023/06/23 13:54:44;;;;;;;8.35;5.45;;;;;;;;;;5039224;28;20021;-73
2023/06/23 13:57:10;;;;;;;6.00;5.15;;;;;;;;;;5032453;28;20033;-73
2023/06/23 13:59:36;;;;;;;7.47;5.07;;;;;;;;;;5032171;28;20021;-73
2023/06/23 14:02:02;;;;;;;11.57;5.95;;;;;;;;;;5031570;28;20099;-77
2023/06/23 14:04:28;;;;;;;9.18;5.30;;;;;;;;;;5032871;28;20072;-74
2023/06/23 14:06:54;;;;;;;7.57;4.80;;;;;;;;;;5031286;28;20026;-78
2023/06/23 14:09:20;;;;;;;10.10;5.45;;;;;;;;;;5033408;28;20030;-79
2023/06/23 14:11:46;;;;;;;9.60;5.32;;;;;;;;;;5032251;28;20029;-75
2023/06/23 14:14:12;;;;;;;11.40;5.30;;;;;;;;;;5032428;28;20026;-74
2023/06/23 14:16:38;;;;;;;10.52;5.22;;;;;;;;;;5034668;28;20031;-75
2023/06/23 14:19:04;;;;;;;8.27;6.25;;;;;;;;;;5033790;28;20091;-74
2023/06/23 14:21:30;;;;;;;6.13;4.10;;;;;;;;;;5031838;28;20080;-73
2023/06/23 14:23:56;;;;;;;9.32;4.45;;;;;;;;;;5031556;28;20051;-74
2023/06/23 14:26:22;;;;;;;6.68;4.00;;;;;;;;;;5032076;28;20056;-74
2023/06/23 14:28:49;;;;;;;7.05;4.75;;;;;;;;;;5032056;28;20037;-74